sensor_id;sensor_type;location;lat;lon;timestamp;P1;durP1;ratioP1;P2;durP2;ratioP2
49860;SDS011;35761;48.826;9.238;2022-11-14T00:01:19;12.73;;;9.10;;
49860;SDS011;35761;48.826;9.238;2022-11-14T00:04:08;14.20;;;9.70;;
49860;SDS011;35761;48.826;9.238;2022-11-14T00:06:54;13.68;;;9.80;;
49860;SDS011;35761;48.826;9.238;2022-11-14T00:09:41;16.27;;;10.32;;
49860;SDS011;35761;48.826;9.238;2022-11-14T00:12:28;14.35;;;8.77;;
49860;SDS011;35761;48.826;9.238;2022-11-14T00:15:15;14.90;;;10.23;;
49860;SDS011;35761;48.826;9.238;2022-11-14T00:18:06;13.90;;;9.38;;
49860;SDS011;35761;48.826;9.238;2022-11-14T00:20:54;14.75;;;9.43;;
49860;SDS011;35761;48.826;9.238;2022-11-14T00:23:41;17.30;;;9.55;;
49860;SDS011;35761;48.826;9.238;2022-11-14T00:26:28;13.38;;;9.55;;
49860;SDS011;35761;48.826;9.238;2022-11-14T00:29:16;14.98;;;9.25;;
49860;SDS011;35761;48.826;9.238;2022-11-14T00:32:03;16.15;;;10.75;;
49860;SDS011;35761;48.826;9.238;2022-11-14T00:34:51;14.75;;;9.73;;
49860;SDS011;35761;48.826;9.238;2022-11-14T00:37:39;14.35;;;8.98;;
49860;SDS011;35761;48.826;9.238;2022-11-14T00:40:26;15.93;;;9.75;;
49860;SDS011;35761;48.826;9.238;2022-11-14T00:43:13;18.00;;;11.32;;
49860;SDS011;35761;48.826;9.238;2022-11-14T00:46:00;17.98;;;12.15;;
49860;SDS011;35761;48.826;9.238;2022-11-14T00:48:47;16.77;;;11.45;;
49860;SDS011;35761;48.826;9.238;2022-11-14T00:51:34;20.48;;;11.63;;
49860;SDS011;35761;48.826;9.238;2022-11-14T00:54:22;19.10;;;11.75;;
49860;SDS011;35761;48.826;9.238;2022-11-14T00:57:10;21.10;;;11.75;;
49860;SDS011;35761;48.826;9.238;2022-11-14T00:59:57;18.58;;;11.15;;
49860;SDS011;35761;48.826;9.238;2022-11-14T01:02:44;18.58;;;11.15;;
49860;SDS011;35761;48.826;9.238;2022-11-14T01:05:31;20.23;;;12.18;;
49860;SDS011;35761;48.826;9.238;2022-11-14T01:08:18;16.70;;;11.60;;
49860;SDS011;35761;48.826;9.238;2022-11-14T01:11:09;20.80;;;11.98;;
49860;SDS011;35761;48.826;9.238;2022-11-14T01:13:58;46.65;;;28.95;;
49860;SDS011;35761;48.826;9.238;2022-11-14T01:16:45;32.65;;;20.38;;
49860;SDS011;35761;48.826;9.238;2022-11-14T01:19:32;26.77;;;16.60;;
49860;SDS011;35761;48.826;9.238;2022-11-14T01:22:19;22.85;;;12.98;;
49860;SDS011;35761;48.826;9.238;2022-11-14T01:25:07;22.23;;;12.52;;
49860;SDS011;35761;48.826;9.238;2022-11-14T01:27:55;18.27;;;11.77;;
49860;SDS011;35761;48.826;9.238;2022-11-14T01:30:42;18.98;;;12.02;;
49860;SDS011;35761;48.826;9.238;2022-11-14T01:33:29;20.75;;;12.57;;
49860;SDS011;35761;48.826;9.238;2022-11-14T01:36:16;19.27;;;12.32;;
49860;SDS011;35761;48.826;9.238;2022-11-14T01:39:04;19.33;;;12.48;;
49860;SDS011;35761;48.826;9.238;2022-11-14T01:41:51;18.95;;;12.35;;
49860;SDS011;35761;48.826;9.238;2022-11-14T01:44:44;16.38;;;11.23;;
49860;SDS011;35761;48.826;9.238;2022-11-14T01:47:33;16.77;;;11.43;;
49860;SDS011;35761;48.826;9.238;2022-11-14T01:50:21;16.83;;;10.98;;
49860;SDS011;35761;48.826;9.238;2022-11-14T01:53:08;18.85;;;11.52;;
49860;SDS011;35761;48.826;9.238;2022-11-14T01:55:56;18.38;;;11.25;;
49860;SDS011;35761;48.826;9.238;2022-11-14T01:58:48;17.27;;;10.48;;
49860;SDS011;35761;48.826;9.238;2022-11-14T02:01:41;17.80;;;10.82;;
49860;SDS011;35761;48.826;9.238;2022-11-14T02:04:33;17.35;;;11.27;;
49860;SDS011;35761;48.826;9.238;2022-11-14T02:07:24;19.13;;;11.30;;
49860;SDS011;35761;48.826;9.238;2022-11-14T02:10:15;17.15;;;10.95;;
49860;SDS011;35761;48.826;9.238;2022-11-14T02:13:04;19.75;;;11.90;;
49860;SDS011;35761;48.826;9.238;2022-11-14T02:15:52;18.88;;;11.50;;
49860;SDS011;35761;48.826;9.238;2022-11-14T02:18:41;16.55;;;10.43;;
49860;SDS011;35761;48.826;9.238;2022-11-14T02:21:29;16.50;;;10.57;;
49860;SDS011;35761;48.826;9.238;2022-11-14T02:24:16;15.70;;;9.93;;
49860;SDS011;35761;48.826;9.238;2022-11-14T02:27:03;15.45;;;10.27;;
49860;SDS011;35761;48.826;9.238;2022-11-14T02:29:51;15.48;;;10.35;;
49860;SDS011;35761;48.826;9.238;2022-11-14T02:32:38;16.40;;;10.57;;
49860;SDS011;35761;48.826;9.238;2022-11-14T02:35:46;16.33;;;10.18;;
49860;SDS011;35761;48.826;9.238;2022-11-14T02:38:34;19.20;;;11.55;;
49860;SDS011;35761;48.826;9.238;2022-11-14T02:41:22;14.82;;;10.32;;
49860;SDS011;35761;48.826;9.238;2022-11-14T02:44:09;15.35;;;10.82;;
49860;SDS011;35761;48.826;9.238;2022-11-14T02:46:55;19.33;;;11.48;;
49860;SDS011;35761;48.826;9.238;2022-11-14T02:49:42;18.10;;;11.05;;
49860;SDS011;35761;48.826;9.238;2022-11-14T02:52:29;18.65;;;11.02;;
49860;SDS011;35761;48.826;9.238;2022-11-14T02:55:17;23.80;;;12.05;;
49860;SDS011;35761;48.826;9.238;2022-11-14T02:58:05;20.25;;;11.95;;
49860;SDS011;35761;48.826;9.238;2022-11-14T03:00:52;24.05;;;13.07;;
49860;SDS011;35761;48.826;9.238;2022-11-14T03:03:59;20.75;;;12.93;;
49860;SDS011;35761;48.826;9.238;2022-11-14T03:06:46;20.30;;;12.60;;
49860;SDS011;35761;48.826;9.238;2022-11-14T03:09:33;23.52;;;12.68;;
49860;SDS011;35761;48.826;9.238;2022-11-14T03:12:22;21.48;;;13.15;;
49860;SDS011;35761;48.826;9.238;2022-11-14T03:15:09;22.63;;;13.45;;
49860;SDS011;35761;48.826;9.238;2022-11-14T03:17:56;23.58;;;14.00;;
49860;SDS011;35761;48.826;9.238;2022-11-14T03:20:43;19.48;;;12.68;;
49860;SDS011;35761;48.826;9.238;2022-11-14T03:23:30;23.33;;;13.73;;
49860;SDS011;35761;48.826;9.238;2022-11-14T03:26:18;18.77;;;11.98;;
49860;SDS011;35761;48.826;9.238;2022-11-14T03:29:06;22.88;;;13.18;;
49860;SDS011;35761;48.826;9.238;2022-11-14T03:31:53;21.00;;;13.60;;
49860;SDS011;35761;48.826;9.238;2022-11-14T03:34:40;18.83;;;12.70;;
49860;SDS011;35761;48.826;9.238;2022-11-14T03:37:28;18.15;;;12.32;;
49860;SDS011;35761;48.826;9.238;2022-11-14T03:40:15;19.25;;;12.60;;
49860;SDS011;35761;48.826;9.238;2022-11-14T03:43:02;21.95;;;12.73;;
49860;SDS011;35761;48.826;9.238;2022-11-14T03:45:50;20.33;;;12.63;;
49860;SDS011;35761;48.826;9.238;2022-11-14T03:48:38;17.55;;;11.70;;
49860;SDS011;35761;48.826;9.238;2022-11-14T03:51:25;20.48;;;12.63;;
49860;SDS011;35761;48.826;9.238;2022-11-14T03:54:12;23.25;;;11.90;;
49860;SDS011;35761;48.826;9.238;2022-11-14T03:56:59;20.52;;;12.95;;
49860;SDS011;35761;48.826;9.238;2022-11-14T03:59:46;21.08;;;12.02;;
49860;SDS011;35761;48.826;9.238;2022-11-14T04:02:34;17.70;;;11.65;;
49860;SDS011;35761;48.826;9.238;2022-11-14T04:05:21;18.73;;;11.77;;
49860;SDS011;35761;48.826;9.238;2022-11-14T04:08:08;18.17;;;12.10;;
49860;SDS011;35761;48.826;9.238;2022-11-14T04:10:55;21.75;;;11.98;;
49860;SDS011;35761;48.826;9.238;2022-11-14T04:13:41;19.20;;;11.95;;
49860;SDS011;35761;48.826;9.238;2022-11-14T04:16:29;18.33;;;11.55;;
49860;SDS011;35761;48.826;9.238;2022-11-14T04:19:17;18.35;;;11.27;;
49860;SDS011;35761;48.826;9.238;2022-11-14T04:22:03;15.85;;;10.82;;
49860;SDS011;35761;48.826;9.238;2022-11-14T04:24:51;14.90;;;9.85;;
49860;SDS011;35761;48.826;9.238;2022-11-14T04:27:38;15.15;;;9.68;;
49860;SDS011;35761;48.826;9.238;2022-11-14T04:30:25;15.70;;;9.60;;
49860;SDS011;35761;48.826;9.238;2022-11-14T04:33:19;13.68;;;9.68;;
49860;SDS011;35761;48.826;9.238;2022-11-14T04:36:08;15.75;;;10.40;;
49860;SDS011;35761;48.826;9.238;2022-11-14T04:38:55;12.73;;;8.88;;
49860;SDS011;35761;48.826;9.238;2022-11-14T04:41:42;21.55;;;13.57;;
49860;SDS011;35761;48.826;9.238;2022-11-14T04:44:29;13.80;;;9.07;;
49860;SDS011;35761;48.826;9.238;2022-11-14T04:47:16;11.52;;;8.73;;
49860;SDS011;35761;48.826;9.238;2022-11-14T04:50:03;14.10;;;8.73;;
49860;SDS011;35761;48.826;9.238;2022-11-14T04:52:52;11.75;;;8.00;;
49860;SDS011;35761;48.826;9.238;2022-11-14T04:55:39;13.70;;;8.80;;
49860;SDS011;35761;48.826;9.238;2022-11-14T04:58:26;12.05;;;8.18;;
49860;SDS011;35761;48.826;9.238;2022-11-14T05:01:14;12.73;;;8.40;;
49860;SDS011;35761;48.826;9.238;2022-11-14T05:04:02;12.23;;;7.85;;
49860;SDS011;35761;48.826;9.238;2022-11-14T05:06:49;12.77;;;8.23;;
49860;SDS011;35761;48.826;9.238;2022-11-14T05:09:37;15.95;;;8.57;;
49860;SDS011;35761;48.826;9.238;2022-11-14T05:12:25;11.48;;;7.75;;
49860;SDS011;35761;48.826;9.238;2022-11-14T05:15:12;13.18;;;8.20;;
49860;SDS011;35761;48.826;9.238;2022-11-14T05:17:59;11.85;;;8.57;;
49860;SDS011;35761;48.826;9.238;2022-11-14T05:20:46;13.35;;;8.98;;
49860;SDS011;35761;48.826;9.238;2022-11-14T05:23:33;23.75;;;8.60;;
49860;SDS011;35761;48.826;9.238;2022-11-14T05:26:21;14.25;;;8.70;;
49860;SDS011;35761;48.826;9.238;2022-11-14T05:29:08;10.75;;;7.85;;
49860;SDS011;35761;48.826;9.238;2022-11-14T05:31:55;12.85;;;8.73;;
49860;SDS011;35761;48.826;9.238;2022-11-14T05:34:42;11.52;;;7.85;;
49860;SDS011;35761;48.826;9.238;2022-11-14T05:37:29;11.30;;;8.13;;
49860;SDS011;35761;48.826;9.238;2022-11-14T05:40:16;10.50;;;7.88;;
49860;SDS011;35761;48.826;9.238;2022-11-14T05:43:05;11.10;;;8.20;;
49860;SDS011;35761;48.826;9.238;2022-11-14T05:45:52;11.30;;;7.40;;
49860;SDS011;35761;48.826;9.238;2022-11-14T05:48:39;10.98;;;7.82;;
49860;SDS011;35761;48.826;9.238;2022-11-14T05:51:26;12.73;;;7.93;;
49860;SDS011;35761;48.826;9.238;2022-11-14T05:54:13;12.25;;;7.78;;
49860;SDS011;35761;48.826;9.238;2022-11-14T05:57:00;11.55;;;7.18;;
49860;SDS011;35761;48.826;9.238;2022-11-14T05:59:48;11.77;;;8.45;;
49860;SDS011;35761;48.826;9.238;2022-11-14T06:02:35;14.10;;;8.88;;
49860;SDS011;35761;48.826;9.238;2022-11-14T06:05:22;22.45;;;14.60;;
49860;SDS011;35761;48.826;9.238;2022-11-14T06:08:10;12.38;;;8.82;;
49860;SDS011;35761;48.826;9.238;2022-11-14T06:11:00;12.07;;;7.90;;
49860;SDS011;35761;48.826;9.238;2022-11-14T06:13:49;12.60;;;8.90;;
49860;SDS011;35761;48.826;9.238;2022-11-14T06:16:37;14.30;;;9.55;;
49860;SDS011;35761;48.826;9.238;2022-11-14T06:19:24;13.77;;;8.82;;
49860;SDS011;35761;48.826;9.238;2022-11-14T06:22:11;11.63;;;7.22;;
49860;SDS011;35761;48.826;9.238;2022-11-14T06:24:58;13.40;;;7.97;;
49860;SDS011;35761;48.826;9.238;2022-11-14T06:27:45;12.25;;;8.57;;
49860;SDS011;35761;48.826;9.238;2022-11-14T06:30:32;14.18;;;8.80;;
49860;SDS011;35761;48.826;9.238;2022-11-14T06:33:20;10.57;;;7.40;;
49860;SDS011;35761;48.826;9.238;2022-11-14T06:36:08;11.45;;;7.95;;
49860;SDS011;35761;48.826;9.238;2022-11-14T06:38:56;12.55;;;8.43;;
49860;SDS011;35761;48.826;9.238;2022-11-14T06:41:43;12.00;;;8.27;;
49860;SDS011;35761;48.826;9.238;2022-11-14T06:44:30;12.77;;;8.82;;
49860;SDS011;35761;48.826;9.238;2022-11-14T06:47:17;15.95;;;8.50;;
49860;SDS011;35761;48.826;9.238;2022-11-14T06:50:06;13.20;;;8.90;;
49860;SDS011;35761;48.826;9.238;2022-11-14T06:52:53;13.48;;;9.05;;
49860;SDS011;35761;48.826;9.238;2022-11-14T06:55:42;14.48;;;9.88;;
49860;SDS011;35761;48.826;9.238;2022-11-14T06:58:39;13.57;;;8.80;;
49860;SDS011;35761;48.826;9.238;2022-11-14T07:01:28;13.10;;;8.77;;
49860;SDS011;35761;48.826;9.238;2022-11-14T07:04:15;12.88;;;9.15;;
49860;SDS011;35761;48.826;9.238;2022-11-14T07:07:04;12.27;;;8.82;;
49860;SDS011;35761;48.826;9.238;2022-11-14T07:09:51;14.95;;;9.60;;
49860;SDS011;35761;48.826;9.238;2022-11-14T07:12:40;13.13;;;9.13;;
49860;SDS011;35761;48.826;9.238;2022-11-14T07:15:27;13.40;;;9.68;;
49860;SDS011;35761;48.826;9.238;2022-11-14T07:18:14;12.02;;;8.18;;
49860;SDS011;35761;48.826;9.238;2022-11-14T07:21:02;14.18;;;8.93;;
49860;SDS011;35761;48.826;9.238;2022-11-14T07:23:52;15.70;;;8.48;;
49860;SDS011;35761;48.826;9.238;2022-11-14T07:26:39;13.65;;;9.13;;
49860;SDS011;35761;48.826;9.238;2022-11-14T07:29:26;12.68;;;8.57;;
49860;SDS011;35761;48.826;9.238;2022-11-14T07:32:13;14.18;;;8.38;;
49860;SDS011;35761;48.826;9.238;2022-11-14T07:35:00;9.98;;;7.35;;
49860;SDS011;35761;48.826;9.238;2022-11-14T07:37:47;12.90;;;8.15;;
49860;SDS011;35761;48.826;9.238;2022-11-14T07:40:36;10.90;;;7.07;;
49860;SDS011;35761;48.826;9.238;2022-11-14T07:43:23;15.60;;;8.77;;
49860;SDS011;35761;48.826;9.238;2022-11-14T07:46:11;12.05;;;8.05;;
49860;SDS011;35761;48.826;9.238;2022-11-14T07:49:00;12.63;;;7.63;;
49860;SDS011;35761;48.826;9.238;2022-11-14T07:51:47;12.77;;;8.15;;
49860;SDS011;35761;48.826;9.238;2022-11-14T07:54:34;15.43;;;9.20;;
49860;SDS011;35761;48.826;9.238;2022-11-14T07:57:22;13.65;;;8.75;;
49860;SDS011;35761;48.826;9.238;2022-11-14T08:00:09;13.93;;;9.75;;
49860;SDS011;35761;48.826;9.238;2022-11-14T08:02:57;14.73;;;9.27;;
49860;SDS011;35761;48.826;9.238;2022-11-14T08:05:45;12.82;;;9.02;;
49860;SDS011;35761;48.826;9.238;2022-11-14T08:08:32;16.40;;;9.05;;
49860;SDS011;35761;48.826;9.238;2022-11-14T08:11:19;16.83;;;9.93;;
49860;SDS011;35761;48.826;9.238;2022-11-14T08:14:28;14.82;;;8.82;;
49860;SDS011;35761;48.826;9.238;2022-11-14T08:17:14;20.63;;;9.50;;
49860;SDS011;35761;48.826;9.238;2022-11-14T08:20:02;18.10;;;12.13;;
49860;SDS011;35761;48.826;9.238;2022-11-14T08:22:50;17.70;;;9.60;;
49860;SDS011;35761;48.826;9.238;2022-11-14T08:25:37;15.13;;;8.90;;
49860;SDS011;35761;48.826;9.238;2022-11-14T08:28:25;13.60;;;8.88;;
49860;SDS011;35761;48.826;9.238;2022-11-14T08:31:14;18.70;;;9.82;;
49860;SDS011;35761;48.826;9.238;2022-11-14T08:34:01;17.55;;;8.43;;
49860;SDS011;35761;48.826;9.238;2022-11-14T08:36:47;21.73;;;9.38;;
49860;SDS011;35761;48.826;9.238;2022-11-14T08:39:34;20.05;;;11.00;;
49860;SDS011;35761;48.826;9.238;2022-11-14T08:42:22;14.00;;;9.98;;
49860;SDS011;35761;48.826;9.238;2022-11-14T08:45:09;15.85;;;9.52;;
49860;SDS011;35761;48.826;9.238;2022-11-14T08:47:57;19.33;;;10.57;;
49860;SDS011;35761;48.826;9.238;2022-11-14T08:50:44;20.33;;;11.20;;
49860;SDS011;35761;48.826;9.238;2022-11-14T08:53:31;20.88;;;10.52;;
49860;SDS011;35761;48.826;9.238;2022-11-14T08:56:20;16.27;;;10.27;;
49860;SDS011;35761;48.826;9.238;2022-11-14T08:59:07;14.18;;;9.45;;
49860;SDS011;35761;48.826;9.238;2022-11-14T09:01:57;13.93;;;9.77;;
49860;SDS011;35761;48.826;9.238;2022-11-14T09:04:45;20.27;;;10.18;;
49860;SDS011;35761;48.826;9.238;2022-11-14T09:07:32;16.40;;;8.00;;
49860;SDS011;35761;48.826;9.238;2022-11-14T09:10:19;16.00;;;8.27;;
49860;SDS011;35761;48.826;9.238;2022-11-14T09:13:07;15.93;;;7.50;;
49860;SDS011;35761;48.826;9.238;2022-11-14T09:15:53;15.10;;;8.18;;
49860;SDS011;35761;48.826;9.238;2022-11-14T09:18:41;12.00;;;6.85;;
49860;SDS011;35761;48.826;9.238;2022-11-14T09:21:30;11.57;;;6.95;;
49860;SDS011;35761;48.826;9.238;2022-11-14T09:24:17;12.02;;;6.97;;
49860;SDS011;35761;48.826;9.238;2022-11-14T09:27:04;12.13;;;6.78;;
49860;SDS011;35761;48.826;9.238;2022-11-14T09:29:51;10.32;;;5.80;;
49860;SDS011;35761;48.826;9.238;2022-11-14T09:32:38;9.93;;;5.63;;
49860;SDS011;35761;48.826;9.238;2022-11-14T09:35:25;12.65;;;5.90;;
49860;SDS011;35761;48.826;9.238;2022-11-14T09:38:14;9.48;;;5.45;;
49860;SDS011;35761;48.826;9.238;2022-11-14T09:41:04;8.70;;;5.25;;
49860;SDS011;35761;48.826;9.238;2022-11-14T09:44:10;9.48;;;5.32;;
49860;SDS011;35761;48.826;9.238;2022-11-14T09:47:13;9.27;;;4.90;;
49860;SDS011;35761;48.826;9.238;2022-11-14T09:50:06;13.05;;;5.75;;
49860;SDS011;35761;48.826;9.238;2022-11-14T09:53:00;11.05;;;5.38;;
49860;SDS011;35761;48.826;9.238;2022-11-14T09:55:54;31.52;;;16.40;;
49860;SDS011;35761;48.826;9.238;2022-11-14T09:58:41;10.70;;;6.15;;
49860;SDS011;35761;48.826;9.238;2022-11-14T10:01:31;8.23;;;4.70;;
49860;SDS011;35761;48.826;9.238;2022-11-14T10:04:30;7.55;;;4.70;;
49860;SDS011;35761;48.826;9.238;2022-11-14T10:07:33;7.00;;;4.82;;
49860;SDS011;35761;48.826;9.238;2022-11-14T10:10:38;8.65;;;5.47;;
49860;SDS011;35761;48.826;9.238;2022-11-14T10:13:46;8.95;;;5.15;;
49860;SDS011;35761;48.826;9.238;2022-11-14T10:16:56;10.25;;;6.18;;
49860;SDS011;35761;48.826;9.238;2022-11-14T10:19:58;10.48;;;7.10;;
49860;SDS011;35761;48.826;9.238;2022-11-14T10:22:59;10.60;;;6.93;;
49860;SDS011;35761;48.826;9.238;2022-11-14T10:26:02;16.98;;;8.65;;
49860;SDS011;35761;48.826;9.238;2022-11-14T10:29:03;15.65;;;8.52;;
49860;SDS011;35761;48.826;9.238;2022-11-14T10:32:36;19.75;;;8.68;;
49860;SDS011;35761;48.826;9.238;2022-11-14T10:35:38;15.35;;;7.68;;
49860;SDS011;35761;48.826;9.238;2022-11-14T10:38:30;19.48;;;8.40;;
49860;SDS011;35761;48.826;9.238;2022-11-14T10:41:22;17.73;;;8.07;;
49860;SDS011;35761;48.826;9.238;2022-11-14T10:44:33;17.35;;;8.90;;
49860;SDS011;35761;48.826;9.238;2022-11-14T10:47:34;16.17;;;9.07;;
49860;SDS011;35761;48.826;9.238;2022-11-14T10:50:27;13.45;;;7.55;;
49860;SDS011;35761;48.826;9.238;2022-11-14T10:53:27;12.23;;;7.25;;
49860;SDS011;35761;48.826;9.238;2022-11-14T10:56:31;10.68;;;6.22;;
49860;SDS011;35761;48.826;9.238;2022-11-14T10:59:19;10.82;;;5.53;;
49860;SDS011;35761;48.826;9.238;2022-11-14T11:02:08;9.82;;;5.40;;
49860;SDS011;35761;48.826;9.238;2022-11-14T11:04:57;12.65;;;4.57;;
49860;SDS011;35761;48.826;9.238;2022-11-14T11:07:58;12.88;;;5.75;;
49860;SDS011;35761;48.826;9.238;2022-11-14T11:11:23;6.85;;;3.90;;
49860;SDS011;35761;48.826;9.238;2022-11-14T11:14:17;12.63;;;4.20;;
49860;SDS011;35761;48.826;9.238;2022-11-14T11:17:15;8.52;;;4.40;;
49860;SDS011;35761;48.826;9.238;2022-11-14T11:23:26;11.15;;;4.70;;
49860;SDS011;35761;48.826;9.238;2022-11-14T11:26:16;10.70;;;4.60;;
49860;SDS011;35761;48.826;9.238;2022-11-14T11:29:07;11.55;;;4.63;;
49860;SDS011;35761;48.826;9.238;2022-11-14T11:32:02;7.43;;;4.03;;
49860;SDS011;35761;48.826;9.238;2022-11-14T11:34:51;6.70;;;3.40;;
49860;SDS011;35761;48.826;9.238;2022-11-14T11:37:40;5.38;;;3.17;;
49860;SDS011;35761;48.826;9.238;2022-11-14T11:40:31;4.60;;;2.70;;
49860;SDS011;35761;48.826;9.238;2022-11-14T11:43:20;5.47;;;2.90;;
49860;SDS011;35761;48.826;9.238;2022-11-14T11:46:24;10.25;;;2.97;;
49860;SDS011;35761;48.826;9.238;2022-11-14T11:49:18;10.93;;;4.28;;
49860;SDS011;35761;48.826;9.238;2022-11-14T11:52:25;5.45;;;3.00;;
49860;SDS011;35761;48.826;9.238;2022-11-14T11:55:19;8.98;;;2.83;;
49860;SDS011;35761;48.826;9.238;2022-11-14T11:58:11;12.63;;;3.38;;
49860;SDS011;35761;48.826;9.238;2022-11-14T12:01:04;9.48;;;2.97;;
49860;SDS011;35761;48.826;9.238;2022-11-14T12:03:51;5.70;;;2.88;;
49860;SDS011;35761;48.826;9.238;2022-11-14T12:06:41;5.60;;;2.80;;
49860;SDS011;35761;48.826;9.238;2022-11-14T12:09:37;7.80;;;3.15;;
49860;SDS011;35761;48.826;9.238;2022-11-14T12:12:51;6.03;;;3.03;;
49860;SDS011;35761;48.826;9.238;2022-11-14T12:16:03;7.03;;;3.30;;
49860;SDS011;35761;48.826;9.238;2022-11-14T12:19:26;6.97;;;3.85;;
49860;SDS011;35761;48.826;9.238;2022-11-14T12:22:40;7.20;;;3.20;;
49860;SDS011;35761;48.826;9.238;2022-11-14T12:25:57;6.80;;;2.80;;
49860;SDS011;35761;48.826;9.238;2022-11-14T12:29:07;7.82;;;2.65;;
49860;SDS011;35761;48.826;9.238;2022-11-14T12:32:10;5.55;;;2.60;;
49860;SDS011;35761;48.826;9.238;2022-11-14T12:35:04;5.88;;;2.55;;
49860;SDS011;35761;48.826;9.238;2022-11-14T12:38:01;4.40;;;2.40;;
49860;SDS011;35761;48.826;9.238;2022-11-14T12:40:50;5.18;;;2.40;;
49860;SDS011;35761;48.826;9.238;2022-11-14T12:43:41;7.03;;;1.95;;
49860;SDS011;35761;48.826;9.238;2022-11-14T12:46:29;6.03;;;2.00;;
49860;SDS011;35761;48.826;9.238;2022-11-14T12:53:38;4.43;;;2.20;;
49860;SDS011;35761;48.826;9.238;2022-11-14T13:00:01;3.83;;;2.00;;
49860;SDS011;35761;48.826;9.238;2022-11-14T13:03:12;5.68;;;1.63;;
49860;SDS011;35761;48.826;9.238;2022-11-14T13:06:09;2.90;;;1.48;;
49860;SDS011;35761;48.826;9.238;2022-11-14T13:09:26;3.97;;;1.80;;
49860;SDS011;35761;48.826;9.238;2022-11-14T13:12:24;4.72;;;1.90;;
49860;SDS011;35761;48.826;9.238;2022-11-14T13:15:47;4.13;;;2.22;;
49860;SDS011;35761;48.826;9.238;2022-11-14T13:18:54;3.70;;;2.00;;
49860;SDS011;35761;48.826;9.238;2022-11-14T13:22:16;3.65;;;1.75;;
49860;SDS011;35761;48.826;9.238;2022-11-14T13:25:23;4.55;;;1.80;;
49860;SDS011;35761;48.826;9.238;2022-11-14T13:31:44;4.18;;;1.80;;
49860;SDS011;35761;48.826;9.238;2022-11-14T13:34:40;3.67;;;1.70;;
49860;SDS011;35761;48.826;9.238;2022-11-14T13:37:38;5.50;;;1.60;;
49860;SDS011;35761;48.826;9.238;2022-11-14T13:40:43;4.25;;;1.83;;
49860;SDS011;35761;48.826;9.238;2022-11-14T13:43:43;3.92;;;2.08;;
49860;SDS011;35761;48.826;9.238;2022-11-14T13:46:46;8.93;;;2.30;;
49860;SDS011;35761;48.826;9.238;2022-11-14T13:49:52;3.45;;;1.80;;
49860;SDS011;35761;48.826;9.238;2022-11-14T13:52:46;3.95;;;1.95;;
49860;SDS011;35761;48.826;9.238;2022-11-14T13:55:37;3.67;;;1.95;;
49860;SDS011;35761;48.826;9.238;2022-11-14T14:05:49;3.60;;;1.98;;
49860;SDS011;35761;48.826;9.238;2022-11-14T14:08:59;4.53;;;1.70;;
49860;SDS011;35761;48.826;9.238;2022-11-14T14:12:17;2.55;;;1.65;;
49860;SDS011;35761;48.826;9.238;2022-11-14T14:15:32;7.68;;;2.00;;
49860;SDS011;35761;48.826;9.238;2022-11-14T14:18:26;3.95;;;1.70;;
49860;SDS011;35761;48.826;9.238;2022-11-14T14:21:37;6.15;;;1.85;;
49860;SDS011;35761;48.826;9.238;2022-11-14T14:24:34;5.30;;;1.75;;
49860;SDS011;35761;48.826;9.238;2022-11-14T14:27:36;6.50;;;1.83;;
49860;SDS011;35761;48.826;9.238;2022-11-14T14:30:33;4.80;;;1.98;;
49860;SDS011;35761;48.826;9.238;2022-11-14T14:33:20;4.00;;;2.03;;
49860;SDS011;35761;48.826;9.238;2022-11-14T14:36:16;5.28;;;2.15;;
49860;SDS011;35761;48.826;9.238;2022-11-14T14:39:14;3.90;;;2.05;;
49860;SDS011;35761;48.826;9.238;2022-11-14T14:42:08;6.00;;;2.10;;
49860;SDS011;35761;48.826;9.238;2022-11-14T14:44:56;3.75;;;2.13;;
49860;SDS011;35761;48.826;9.238;2022-11-14T14:47:44;4.50;;;1.90;;
49860;SDS011;35761;48.826;9.238;2022-11-14T14:50:34;4.70;;;2.47;;
49860;SDS011;35761;48.826;9.238;2022-11-14T14:53:27;7.13;;;1.70;;
49860;SDS011;35761;48.826;9.238;2022-11-14T14:56:17;5.95;;;1.80;;
49860;SDS011;35761;48.826;9.238;2022-11-14T15:02:12;6.38;;;2.00;;
49860;SDS011;35761;48.826;9.238;2022-11-14T15:05:02;4.40;;;1.90;;
49860;SDS011;35761;48.826;9.238;2022-11-14T15:07:51;6.93;;;1.85;;
49860;SDS011;35761;48.826;9.238;2022-11-14T15:10:43;5.55;;;2.30;;
49860;SDS011;35761;48.826;9.238;2022-11-14T15:13:30;5.90;;;2.08;;
49860;SDS011;35761;48.826;9.238;2022-11-14T15:16:19;6.00;;;2.15;;
49860;SDS011;35761;48.826;9.238;2022-11-14T15:19:08;3.42;;;1.85;;
49860;SDS011;35761;48.826;9.238;2022-11-14T15:22:02;3.67;;;2.08;;
49860;SDS011;35761;48.826;9.238;2022-11-14T15:28:12;4.78;;;1.90;;
49860;SDS011;35761;48.826;9.238;2022-11-14T15:31:02;3.33;;;1.77;;
49860;SDS011;35761;48.826;9.238;2022-11-14T15:34:00;4.88;;;2.10;;
49860;SDS011;35761;48.826;9.238;2022-11-14T15:37:04;8.20;;;2.03;;
49860;SDS011;35761;48.826;9.238;2022-11-14T15:40:13;7.53;;;2.13;;
49860;SDS011;35761;48.826;9.238;2022-11-14T15:46:33;4.95;;;2.35;;
49860;SDS011;35761;48.826;9.238;2022-11-14T15:49:29;7.93;;;2.05;;
49860;SDS011;35761;48.826;9.238;2022-11-14T15:52:17;4.45;;;2.20;;
49860;SDS011;35761;48.826;9.238;2022-11-14T15:55:10;10.75;;;2.22;;
49860;SDS011;35761;48.826;9.238;2022-11-14T15:58:00;5.38;;;2.75;;
49860;SDS011;35761;48.826;9.238;2022-11-14T16:01:10;7.03;;;2.85;;
49860;SDS011;35761;48.826;9.238;2022-11-14T16:04:01;9.77;;;2.45;;
49860;SDS011;35761;48.826;9.238;2022-11-14T16:06:48;7.05;;;2.80;;
49860;SDS011;35761;48.826;9.238;2022-11-14T16:09:35;4.85;;;2.72;;
49860;SDS011;35761;48.826;9.238;2022-11-14T16:12:22;11.00;;;3.03;;
49860;SDS011;35761;48.826;9.238;2022-11-14T16:15:09;5.97;;;2.60;;
49860;SDS011;35761;48.826;9.238;2022-11-14T16:17:58;7.35;;;3.40;;
49860;SDS011;35761;48.826;9.238;2022-11-14T16:20:50;11.65;;;3.22;;
49860;SDS011;35761;48.826;9.238;2022-11-14T16:23:37;6.20;;;3.08;;
49860;SDS011;35761;48.826;9.238;2022-11-14T16:26:24;9.05;;;3.10;;
49860;SDS011;35761;48.826;9.238;2022-11-14T16:29:11;6.25;;;2.95;;
49860;SDS011;35761;48.826;9.238;2022-11-14T16:31:58;5.35;;;3.20;;
49860;SDS011;35761;48.826;9.238;2022-11-14T16:34:47;13.40;;;7.10;;
49860;SDS011;35761;48.826;9.238;2022-11-14T16:37:34;9.45;;;5.10;;
49860;SDS011;35761;48.826;9.238;2022-11-14T16:40:21;7.82;;;2.83;;
49860;SDS011;35761;48.826;9.238;2022-11-14T16:43:11;10.73;;;4.80;;
49860;SDS011;35761;48.826;9.238;2022-11-14T16:46:01;6.43;;;2.80;;
49860;SDS011;35761;48.826;9.238;2022-11-14T16:48:50;7.03;;;3.50;;
49860;SDS011;35761;48.826;9.238;2022-11-14T16:51:38;14.40;;;3.72;;
49860;SDS011;35761;48.826;9.238;2022-11-14T16:54:34;8.75;;;3.55;;
49860;SDS011;35761;48.826;9.238;2022-11-14T16:57:21;6.22;;;3.40;;
49860;SDS011;35761;48.826;9.238;2022-11-14T17:00:10;12.55;;;3.88;;
49860;SDS011;35761;48.826;9.238;2022-11-14T17:02:58;8.27;;;3.50;;
49860;SDS011;35761;48.826;9.238;2022-11-14T17:05:46;8.35;;;3.70;;
49860;SDS011;35761;48.826;9.238;2022-11-14T17:08:37;8.10;;;3.25;;
49860;SDS011;35761;48.826;9.238;2022-11-14T17:11:24;7.90;;;3.58;;
49860;SDS011;35761;48.826;9.238;2022-11-14T17:14:12;5.63;;;3.33;;
49860;SDS011;35761;48.826;9.238;2022-11-14T17:16:59;9.23;;;3.97;;
49860;SDS011;35761;48.826;9.238;2022-11-14T17:19:46;12.25;;;4.32;;
49860;SDS011;35761;48.826;9.238;2022-11-14T17:22:33;10.55;;;4.20;;
49860;SDS011;35761;48.826;9.238;2022-11-14T17:25:21;9.82;;;5.43;;
49860;SDS011;35761;48.826;9.238;2022-11-14T17:28:09;13.30;;;4.90;;
49860;SDS011;35761;48.826;9.238;2022-11-14T17:30:56;10.18;;;5.22;;